2V5

Wray Municipal Airport

Wray, Colorado, USA
METAR K2V5 210935Z AUTO 15011KT 10SM OVC003 M01/M01 A2977 RMK AO2
Observed Flight Rules
Jan-21 @ 09:35 UTC (12 minutes ago) Instrument Flight Rules
Wind Visibility Clouds
150° at 11 knots 10 miles
  • Overcast at 300' AGL
Temperatures Readings
Current -1°C / 30°F
Dewpoint -1°C / 30°F
Humidity 100%
Altimeter 29.77" Hg
Pressure 1008.12 hPa
Elevation 1118
METAR K2V5 210935Z AUTO 15011KT 10SM OVC003 M01/M01 A2977 RMK AO2
Observed Flight Rules
Jan-21 @ 09:35 UTC
(12 minutes ago)
LIFR
Wind Visibility
150° at 11 knots 10 miles
Clouds
  • Overcast at 300' AGL
Temperature Dewpoint
-1°C / 30°F -1°C / 30°F
Humidity Altimeter Pressure
100% 29.77" Hg 1008.12 hPa